createdAt,value
2018-07-03T00:01:28.567Z,2.33
2018-07-03T00:04:32.218Z,2.60
2018-07-03T00:07:36.192Z,2.20
2018-07-03T00:10:39.904Z,2.20
2018-07-03T00:13:43.569Z,2.20
2018-07-03T00:16:52.429Z,2.33
2018-07-03T00:19:55.993Z,2.37
2018-07-03T00:22:59.789Z,2.47
2018-07-03T00:26:03.396Z,2.20
2018-07-03T00:29:07.006Z,2.10
2018-07-03T00:32:10.613Z,2.33
2018-07-03T00:35:14.238Z,2.50
2018-07-03T00:38:17.808Z,2.40
2018-07-03T00:41:21.392Z,2.27
2018-07-03T00:44:24.987Z,2.30
2018-07-03T00:47:28.558Z,2.23
2018-07-03T00:50:32.287Z,2.33
2018-07-03T00:53:35.874Z,2.30
2018-07-03T00:56:39.502Z,2.17
2018-07-03T00:59:54.212Z,2.13
2018-07-03T01:02:57.793Z,2.20
2018-07-03T01:06:01.332Z,2.23
2018-07-03T01:09:07.178Z,2.70
2018-07-03T01:12:10.843Z,2.43
2018-07-03T01:15:14.554Z,2.30
2018-07-03T01:18:18.173Z,2.80
2018-07-03T01:21:21.774Z,2.57
2018-07-03T01:24:25.492Z,2.20
2018-07-03T01:27:29.209Z,2.50
2018-07-03T01:30:32.711Z,2.43
2018-07-03T01:33:36.370Z,2.57
2018-07-03T01:36:39.947Z,2.47
2018-07-03T01:39:43.603Z,2.90
2018-07-03T01:42:47.180Z,2.60
2018-07-03T01:45:50.799Z,2.73
2018-07-03T01:48:54.339Z,2.70
2018-07-03T01:51:57.987Z,3.20
2018-07-03T01:55:01.678Z,2.50
2018-07-03T01:58:05.363Z,2.80
2018-07-03T02:01:08.943Z,3.10
2018-07-03T02:04:12.939Z,2.90
2018-07-03T02:07:16.557Z,3.10
2018-07-03T02:10:20.238Z,2.70
2018-07-03T02:13:23.820Z,2.63
2018-07-03T02:16:27.444Z,3.03
2018-07-03T02:19:31.143Z,3.20
2018-07-03T02:22:34.693Z,3.10
2018-07-03T02:25:38.450Z,2.80
2018-07-03T02:28:42.014Z,3.27
2018-07-03T02:31:45.618Z,3.70
2018-07-03T02:34:49.198Z,3.13
2018-07-03T02:37:52.924Z,3.23
2018-07-03T02:40:56.593Z,3.63
2018-07-03T02:44:00.206Z,3.60
2018-07-03T02:47:03.990Z,3.40
2018-07-03T02:50:07.784Z,3.50
2018-07-03T02:53:11.470Z,3.50
2018-07-03T02:56:15.020Z,3.73
2018-07-03T02:59:18.660Z,4.20
2018-07-03T03:02:22.209Z,3.70
2018-07-03T03:05:25.914Z,3.90
2018-07-03T03:08:29.525Z,3.97
2018-07-03T03:11:33.190Z,4.30
2018-07-03T03:14:36.878Z,3.83
2018-07-03T03:17:40.471Z,4.10
2018-07-03T03:20:44.086Z,4.00
2018-07-03T03:23:47.838Z,4.00
2018-07-03T03:26:51.360Z,4.13
2018-07-03T03:29:54.911Z,4.30
2018-07-03T03:32:58.511Z,3.67
2018-07-03T03:36:02.189Z,4.03
2018-07-03T03:39:07.829Z,4.20
2018-07-03T03:42:11.380Z,3.70
2018-07-03T03:45:15.095Z,3.33
2018-07-03T03:48:18.868Z,3.40
2018-07-03T03:51:22.672Z,2.80
2018-07-03T03:54:26.451Z,3.10
2018-07-03T03:57:30.359Z,2.60
2018-07-03T04:00:34.101Z,3.10
2018-07-03T04:03:37.761Z,2.70
2018-07-03T04:06:41.432Z,2.70
2018-07-03T04:09:45.042Z,2.50
2018-07-03T04:12:48.775Z,2.77
2018-07-03T04:15:52.362Z,2.70
2018-07-03T04:18:55.959Z,2.70
2018-07-03T04:21:59.660Z,3.20
2018-07-03T04:25:03.472Z,2.87
2018-07-03T04:28:07.217Z,3.60
2018-07-03T04:31:10.888Z,2.90
2018-07-03T04:34:14.537Z,3.03
2018-07-03T04:37:18.271Z,3.00
2018-07-03T04:40:22.010Z,3.27
2018-07-03T04:43:25.686Z,3.47
2018-07-03T04:46:29.316Z,3.17
2018-07-03T04:49:33.166Z,3.40
2018-07-03T04:52:36.787Z,3.60
2018-07-03T04:55:40.532Z,3.70
2018-07-03T04:58:44.380Z,3.40
2018-07-03T05:01:47.986Z,3.53
2018-07-03T05:04:51.712Z,3.40
2018-07-03T05:07:55.334Z,3.30
2018-07-03T05:10:59.036Z,3.50
2018-07-03T05:14:02.693Z,3.30
2018-07-03T05:17:06.455Z,3.40
2018-07-03T05:20:10.155Z,3.60
2018-07-03T05:23:13.894Z,3.40
2018-07-03T05:26:17.467Z,2.80
2018-07-03T05:29:21.448Z,3.27
2018-07-03T05:32:25.290Z,3.50
2018-07-03T05:35:29.006Z,3.53
2018-07-03T05:38:32.533Z,3.60
2018-07-03T05:41:36.387Z,4.27
2018-07-03T05:44:40.103Z,4.40
2018-07-03T05:47:43.870Z,4.20
2018-07-03T05:50:47.473Z,4.37
2018-07-03T05:53:51.218Z,3.80
2018-07-03T05:56:55.036Z,3.70
2018-07-03T05:59:58.714Z,4.13
2018-07-03T06:03:02.507Z,3.90
2018-07-03T06:06:06.277Z,3.70
2018-07-03T06:09:10.747Z,3.87
2018-07-03T06:12:14.392Z,4.70
2018-07-03T06:15:18.008Z,3.60
2018-07-03T06:18:21.841Z,4.13
2018-07-03T06:21:25.606Z,3.30
2018-07-03T06:24:29.353Z,3.63
2018-07-03T06:27:32.975Z,3.70
2018-07-03T06:30:36.738Z,3.63
2018-07-03T06:33:40.526Z,3.50
2018-07-03T06:36:44.185Z,3.90
2018-07-03T06:39:47.841Z,3.50
2018-07-03T06:42:51.441Z,3.80
2018-07-03T06:45:55.661Z,3.80
2018-07-03T06:48:59.475Z,3.57
2018-07-03T06:52:03.063Z,3.43
2018-07-03T06:55:06.730Z,3.20
2018-07-03T06:58:10.337Z,3.30
2018-07-03T07:01:13.972Z,3.13
2018-07-03T07:04:17.823Z,3.33
2018-07-03T07:07:21.494Z,3.00
2018-07-03T07:10:25.093Z,3.10
2018-07-03T07:13:28.668Z,3.10
2018-07-03T07:16:32.323Z,3.40
2018-07-03T07:19:36.052Z,3.37
2018-07-03T07:22:39.678Z,2.90
2018-07-03T07:25:43.473Z,3.00
2018-07-03T07:28:47.157Z,2.30
2018-07-03T07:31:51.791Z,2.70
2018-07-03T07:34:55.479Z,2.60
2018-07-03T07:37:59.156Z,2.80
2018-07-03T07:41:02.874Z,2.40
2018-07-03T07:44:07.224Z,2.33
2018-07-03T07:47:12.330Z,2.50
2018-07-03T07:50:16.033Z,2.23
2018-07-03T07:53:19.816Z,2.57
2018-07-03T07:56:23.696Z,2.17
2018-07-03T07:59:27.438Z,2.43
2018-07-03T08:02:31.199Z,2.60
2018-07-03T08:05:34.962Z,2.40
2018-07-03T08:08:38.704Z,2.13
2018-07-03T08:11:42.372Z,2.10
2018-07-03T08:14:46.025Z,2.23
2018-07-03T08:17:49.774Z,2.30
2018-07-03T08:20:53.404Z,1.90
2018-07-03T08:23:57.128Z,2.23
2018-07-03T08:27:01.104Z,2.00
2018-07-03T08:30:05.347Z,2.10
2018-07-03T08:33:11.622Z,2.10
2018-07-03T08:36:15.313Z,2.00
2018-07-03T08:39:19.149Z,2.20
2018-07-03T08:42:22.812Z,2.13
2018-07-03T08:45:26.559Z,2.20
2018-07-03T08:48:30.228Z,2.20
2018-07-03T08:51:33.920Z,2.27
2018-07-03T08:54:37.529Z,2.30
2018-07-03T08:57:41.382Z,2.10
2018-07-03T09:00:45.219Z,2.30
2018-07-03T09:03:49.062Z,2.10
2018-07-03T09:06:52.703Z,2.40
2018-07-03T09:09:56.358Z,2.00
2018-07-03T09:13:00.027Z,1.93
2018-07-03T09:16:03.869Z,2.00
2018-07-03T09:19:07.807Z,1.93
2018-07-03T09:22:11.483Z,2.07
2018-07-03T09:25:15.239Z,1.80
2018-07-03T09:28:18.833Z,1.97
2018-07-03T09:31:22.536Z,1.97
2018-07-03T09:34:26.144Z,1.90
2018-07-03T09:37:29.890Z,2.17
2018-07-03T09:40:33.551Z,1.93
2018-07-03T09:43:37.303Z,2.23
2018-07-03T09:46:41.138Z,2.03
2018-07-03T09:49:44.774Z,1.90
2018-07-03T09:52:48.464Z,1.80
2018-07-03T09:55:52.128Z,2.03
2018-07-03T09:58:56.045Z,2.10
2018-07-03T10:01:59.728Z,2.13
2018-07-03T10:05:03.468Z,2.20
2018-07-03T10:08:07.223Z,2.03
2018-07-03T10:11:10.933Z,2.20
2018-07-03T10:14:14.634Z,2.33
2018-07-03T10:17:18.393Z,2.17
2018-07-03T10:20:21.994Z,2.10
2018-07-03T10:23:25.729Z,2.13
2018-07-03T10:26:29.440Z,1.90
2018-07-03T10:29:33.134Z,1.73
2018-07-03T10:32:36.759Z,1.93
2018-07-03T10:35:40.456Z,1.90
2018-07-03T10:38:49.275Z,2.10
2018-07-03T10:41:53.320Z,2.00
2018-07-03T10:44:57.211Z,2.27
2018-07-03T10:48:00.925Z,2.07
2018-07-03T10:51:04.527Z,1.80
2018-07-03T10:54:08.400Z,2.03
2018-07-03T10:57:12.344Z,1.90
2018-07-03T11:00:16.165Z,2.00
2018-07-03T11:03:19.817Z,2.10
2018-07-03T11:06:23.438Z,2.00
2018-07-03T11:09:27.124Z,2.30
2018-07-03T11:12:30.805Z,2.00
2018-07-03T11:15:34.585Z,1.90
2018-07-03T11:18:38.307Z,2.00
2018-07-03T11:21:41.980Z,2.20
2018-07-03T11:24:45.640Z,2.47
2018-07-03T11:27:49.317Z,2.37
2018-07-03T11:30:52.989Z,2.10
2018-07-03T11:33:56.644Z,2.30
2018-07-03T11:37:00.350Z,2.37
2018-07-03T11:40:04.097Z,2.00
2018-07-03T11:43:08.059Z,2.20
2018-07-03T11:46:11.715Z,2.23
2018-07-03T11:49:15.634Z,2.10
2018-07-03T11:52:19.283Z,2.40
2018-07-03T11:55:23.681Z,2.10
2018-07-03T11:58:27.314Z,2.57
2018-07-03T12:01:31.167Z,1.90
2018-07-03T12:04:34.761Z,2.10
2018-07-03T12:07:38.498Z,2.10
2018-07-03T12:10:42.385Z,2.30
2018-07-03T12:13:46.205Z,2.30
2018-07-03T12:16:50.100Z,2.13
2018-07-03T12:19:53.818Z,2.10
2018-07-03T12:22:57.571Z,2.27
2018-07-03T12:26:01.421Z,2.20
2018-07-03T12:29:05.970Z,2.13
2018-07-03T12:32:09.680Z,2.20
2018-07-03T12:35:13.387Z,2.30
2018-07-03T12:38:17.217Z,2.40
2018-07-03T12:41:20.865Z,2.60
2018-07-03T12:44:24.550Z,2.23
2018-07-03T12:47:28.336Z,2.17
2018-07-03T12:50:32.050Z,2.23
2018-07-03T12:53:35.691Z,2.03
2018-07-03T12:56:39.437Z,2.60
2018-07-03T12:59:43.160Z,2.07
2018-07-03T13:02:46.921Z,2.40
2018-07-03T13:05:50.771Z,2.20
2018-07-03T13:08:54.475Z,2.17
2018-07-03T13:11:58.217Z,2.13
2018-07-03T13:15:02.040Z,2.10
2018-07-03T13:18:11.506Z,2.30
2018-07-03T13:21:15.251Z,2.50
2018-07-03T13:24:19.157Z,2.30
2018-07-03T13:27:22.835Z,2.30
2018-07-03T13:30:26.576Z,2.17
2018-07-03T13:33:30.255Z,2.00
2018-07-03T13:36:34.116Z,2.97
2018-07-03T13:39:37.930Z,2.60
2018-07-03T13:42:41.629Z,2.40
2018-07-03T13:45:45.375Z,2.33
2018-07-03T13:48:49.127Z,2.20
2018-07-03T13:51:52.803Z,2.10
2018-07-03T13:54:56.390Z,2.33
2018-07-03T13:58:00.117Z,2.37
2018-07-03T14:01:03.867Z,2.30
2018-07-03T14:04:07.716Z,2.20
2018-07-03T14:07:11.526Z,2.40
2018-07-03T14:10:15.257Z,2.23
2018-07-03T14:13:18.850Z,2.27
2018-07-03T14:16:22.490Z,2.47
2018-07-03T14:19:26.333Z,2.27
2018-07-03T14:22:30.034Z,2.20
2018-07-03T14:25:33.967Z,2.20
2018-07-03T14:28:37.715Z,2.33
2018-07-03T14:31:41.446Z,2.20
2018-07-03T14:34:45.114Z,2.37
2018-07-03T14:37:48.864Z,2.37
2018-07-03T14:40:52.627Z,2.47
2018-07-03T14:43:56.386Z,2.10
2018-07-03T14:47:00.112Z,2.20
2018-07-03T14:50:03.808Z,2.10
2018-07-03T14:53:07.545Z,2.23
2018-07-03T14:56:11.203Z,2.30
2018-07-03T14:59:14.906Z,2.20
2018-07-03T15:02:18.611Z,2.13
2018-07-03T15:05:22.202Z,2.20
2018-07-03T15:08:25.936Z,2.37
2018-07-03T15:11:30.484Z,2.03
2018-07-03T15:14:34.212Z,2.20
2018-07-03T15:17:37.907Z,2.00
2018-07-03T15:20:41.847Z,2.10
2018-07-03T15:23:45.756Z,2.37
2018-07-03T15:26:49.392Z,2.50
2018-07-03T15:29:53.048Z,1.90
2018-07-03T15:32:56.673Z,2.20
2018-07-03T15:36:00.355Z,2.30
2018-07-03T15:39:06.623Z,2.33
2018-07-03T15:42:10.302Z,2.30
2018-07-03T15:45:14.992Z,2.20
2018-07-03T15:48:18.651Z,2.17
2018-07-03T15:51:22.361Z,2.37
2018-07-03T15:54:26.011Z,2.20
2018-07-03T15:57:29.650Z,2.17
2018-07-03T16:00:33.478Z,2.10
2018-07-03T16:04:13.420Z,2.00
2018-07-03T16:07:28.242Z,2.10
2018-07-03T16:10:32.122Z,1.90
2018-07-03T16:13:35.873Z,2.37
2018-07-03T16:16:39.742Z,2.30
2018-07-03T16:19:48.518Z,2.00
2018-07-03T16:22:52.232Z,2.10
2018-07-03T16:25:56.133Z,2.00
2018-07-03T16:28:59.919Z,2.07
2018-07-03T16:32:03.702Z,2.17
2018-07-03T16:35:07.457Z,1.97
2018-07-03T16:38:12.008Z,2.00
2018-07-03T16:41:15.693Z,2.20
2018-07-03T16:44:19.482Z,1.93
2018-07-03T16:47:23.277Z,2.40
2018-07-03T16:50:27.008Z,2.03
2018-07-03T16:53:30.663Z,1.93
2018-07-03T16:56:34.441Z,2.40
2018-07-03T16:59:38.097Z,1.90
2018-07-03T17:02:41.827Z,1.90
2018-07-03T17:05:45.570Z,1.80
2018-07-03T17:08:49.473Z,1.87
2018-07-03T17:11:53.537Z,1.70
2018-07-03T17:14:57.167Z,1.90
2018-07-03T17:18:00.888Z,1.70
2018-07-03T17:21:04.667Z,1.60
2018-07-03T17:24:08.664Z,1.70
2018-07-03T17:27:12.285Z,1.80
2018-07-03T17:30:16.118Z,1.60
2018-07-03T17:33:19.898Z,1.70
2018-07-03T17:36:23.603Z,1.57
2018-07-03T17:39:38.434Z,1.60
2018-07-03T17:42:53.304Z,1.73
2018-07-03T17:46:03.428Z,1.80
2018-07-03T17:49:07.630Z,1.77
2018-07-03T17:52:11.348Z,1.60
2018-07-03T17:55:15.098Z,1.67
2018-07-03T17:58:18.783Z,1.90
2018-07-03T18:01:22.909Z,1.50
2018-07-03T18:04:26.649Z,1.40
2018-07-03T18:07:30.295Z,1.50
2018-07-03T18:10:34.064Z,1.50
2018-07-03T18:13:37.785Z,1.50
2018-07-03T18:16:41.503Z,1.87
2018-07-03T18:19:45.196Z,1.50
2018-07-03T18:22:48.933Z,1.77
2018-07-03T18:25:52.708Z,1.93
2018-07-03T18:28:56.474Z,2.10
2018-07-03T18:32:00.169Z,2.10
2018-07-03T18:35:04.152Z,2.10
2018-07-03T18:38:07.918Z,2.00
2018-07-03T18:41:11.887Z,2.50
2018-07-03T18:44:15.669Z,2.50
2018-07-03T18:47:19.538Z,2.20
2018-07-03T18:50:23.250Z,2.50
2018-07-03T18:53:26.939Z,3.20
2018-07-03T18:56:30.687Z,4.20
2018-07-03T18:59:34.623Z,3.57
2018-07-03T19:02:38.298Z,4.23
2018-07-03T19:05:42.074Z,3.60
2018-07-03T19:08:46.075Z,4.10
2018-07-03T19:11:49.975Z,4.37
2018-07-03T19:14:53.742Z,3.87
2018-07-03T19:17:57.575Z,4.23
2018-07-03T19:21:01.310Z,4.53
2018-07-03T19:24:05.170Z,4.80
2018-07-03T19:27:08.880Z,4.10
2018-07-03T19:30:12.768Z,4.60
2018-07-03T19:33:16.401Z,4.37
2018-07-03T19:36:20.174Z,4.20
2018-07-03T19:39:24.010Z,4.20
2018-07-03T19:42:27.816Z,4.33
2018-07-03T19:45:31.289Z,4.07
2018-07-03T19:48:35.018Z,4.63
2018-07-03T19:51:38.835Z,4.40
2018-07-03T19:54:42.639Z,4.17
2018-07-03T19:57:46.392Z,4.40
2018-07-03T20:00:50.873Z,4.33
2018-07-03T20:03:54.526Z,4.17
2018-07-03T20:06:58.170Z,4.63
2018-07-03T20:10:01.799Z,4.63
2018-07-03T20:13:05.953Z,4.80
2018-07-03T20:16:09.483Z,4.80
2018-07-03T20:19:14.467Z,5.10
2018-07-03T20:22:18.179Z,4.80
2018-07-03T20:25:21.975Z,4.47
2018-07-03T20:28:26.479Z,4.80
2018-07-03T20:31:30.206Z,4.57
2018-07-03T20:34:33.884Z,5.17
2018-07-03T20:37:51.725Z,5.07
2018-07-03T20:41:11.399Z,5.20
2018-07-03T20:44:15.036Z,5.50
2018-07-03T20:47:18.738Z,5.57
2018-07-03T20:50:22.427Z,5.47
2018-07-03T20:53:25.998Z,5.57
2018-07-03T20:56:29.679Z,5.23
2018-07-03T20:59:33.367Z,5.70
2018-07-03T21:02:37.236Z,5.37
2018-07-03T21:05:41.042Z,5.90
2018-07-03T21:08:44.748Z,5.40
2018-07-03T21:11:49.131Z,5.70
2018-07-03T21:14:52.870Z,5.40
2018-07-03T21:17:56.631Z,5.13
2018-07-03T21:21:00.252Z,5.30
2018-07-03T21:24:04.248Z,5.03
2018-07-03T21:27:08.542Z,5.63
2018-07-03T21:30:12.304Z,5.23
2018-07-03T21:33:15.886Z,5.83
2018-07-03T21:36:19.510Z,5.70
2018-07-03T21:39:23.180Z,5.70
2018-07-03T21:42:26.882Z,5.50
2018-07-03T21:45:30.590Z,5.17
2018-07-03T21:48:34.331Z,5.10
2018-07-03T21:51:37.915Z,4.60
2018-07-03T21:54:41.616Z,4.93
2018-07-03T21:57:45.152Z,5.17
2018-07-03T22:00:48.845Z,5.50
2018-07-03T22:03:52.446Z,5.13
2018-07-03T22:06:56.443Z,4.60
2018-07-03T22:10:00.158Z,4.87
2018-07-03T22:13:04.294Z,4.90
2018-07-03T22:16:07.890Z,4.73
2018-07-03T22:19:11.476Z,4.80
2018-07-03T22:22:15.176Z,4.43
2018-07-03T22:25:18.872Z,5.07
2018-07-03T22:28:22.595Z,4.83
2018-07-03T22:31:26.273Z,5.43
2018-07-03T22:34:29.851Z,4.80
2018-07-03T22:37:33.501Z,4.77
2018-07-03T22:40:37.122Z,4.80
2018-07-03T22:43:40.771Z,5.20
2018-07-03T22:46:44.372Z,4.90
2018-07-03T22:49:47.983Z,5.27
2018-07-03T22:52:51.611Z,5.23
2018-07-03T22:55:55.172Z,5.77
2018-07-03T22:58:58.785Z,5.30
2018-07-03T23:02:02.335Z,4.73
2018-07-03T23:05:06.067Z,5.40
2018-07-03T23:08:09.717Z,5.40
2018-07-03T23:11:13.341Z,5.13
2018-07-03T23:14:17.010Z,5.27
2018-07-03T23:17:20.918Z,5.90
2018-07-03T23:20:24.606Z,5.70
2018-07-03T23:23:28.270Z,6.27
2018-07-03T23:26:31.953Z,5.30
2018-07-03T23:29:35.651Z,5.53
2018-07-03T23:32:39.167Z,4.83
2018-07-03T23:35:42.778Z,5.37
2018-07-03T23:38:46.490Z,5.20
2018-07-03T23:41:50.181Z,5.60
2018-07-03T23:44:53.846Z,6.40
2018-07-03T23:48:08.620Z,5.63
2018-07-03T23:51:23.438Z,6.57
2018-07-03T23:54:38.113Z,5.63
2018-07-03T23:57:52.937Z,6.10
